Latest Weather Observations for Truscott

IDD60801

Issued at 1:31 pm CST Saturday 28 March 2015 (issued every 30 minutes, with the page automatically refreshed every 10 minutes)

About weather observations | Map of weather stations | Latest weather observations for NT | Other Formats
Station Details ID: 001020 Name: TRUSCOTT Lat: -14.09 Lon: 126.39 Height: 51.0 m
Data from the previous 72 hours. | See also: Recent months at Truscott
Date/Time
CST
Temp
°C
App
Temp
°C
Dew
Point
Rel
Hum
%
Delta-T
°C
Wind Press
QNH
hPa
Press
MSL
hPa
Rain
since 9 am
mm
Dir
 
Spd
km/h
Gust
km/h
Spd
kts
Gust
kts
28/01:30pm 26.4 31.2 24.4 89 1.4 NNE 7 9 4 5 1013.2 1012.6 2.6
28/01:24pm 26.3 31.0 24.3 89 1.4 NNE 7 15 4 8 1013.2 - 2.6
28/01:00pm 26.1 30.8 24.9 93 0.8 N 9 11 5 6 1013.4 - 2.6
28/12:53pm 25.8 30.3 24.6 93 0.8 NNE 9 13 5 7 1013.4 - 2.6
28/12:30pm 25.8 31.2 25.1 96 0.5 N 6 9 3 5 1013.7 - 2.6
28/12:00pm 25.2 31.6 24.9 98 0.2 CALM 0 7 0 4 1014.1 - 2.6
28/11:53am 25.2 30.8 24.9 98 0.2 ENE 4 7 2 4 1014.3 - 2.4
28/11:30am 24.6 29.0 24.4 99 0.1 ENE 9 11 5 6 1014.5 - 2.4
28/11:16am 24.5 29.4 24.3 99 0.1 ENE 6 7 3 4 1014.4 - 2.4
28/11:00am 24.2 28.7 24.0 99 0.1 NE 7 15 4 8 1014.6 - 1.8
28/10:55am 24.2 28.7 24.0 99 0.1 NNE 7 13 4 7 1014.6 - 1.0
28/10:30am 24.1 28.7 24.1 100 0.0 N 7 9 4 5 1014.3 1013.7 13.4
28/10:02am 24.1 28.0 23.6 97 0.3 ENE 9 17 5 9 1014.6 - 12.8
28/10:00am 24.1 28.0 23.6 97 0.3 ENE 9 17 5 9 1014.6 - 12.8
28/09:37am 24.3 29.0 24.3 100 0.0 E 7 15 4 8 1014.4 - 12.0
28/09:30am 24.4 28.4 24.4 100 0.0 NE 11 19 6 10 1014.3 - 12.0
28/09:18am 24.4 28.6 24.1 98 0.2 N 9 22 5 12 1013.8 - 11.6
28/09:17am 24.4 28.5 23.9 97 0.3 N 9 13 5 7 1013.9 - 11.2
28/09:00am 24.3 28.3 23.1 93 0.8 NNW 7 11 4 6 1013.7 - 9.0
28/08:30am 25.5 27.9 23.0 86 1.7 NNE 15 22 8 12 1013.5 - 8.8
28/08:00am 25.6 30.2 24.2 92 1.0 E 7 11 4 6 1012.6 - 8.8
28/07:30am 25.4 29.4 23.8 91 1.1 E 9 13 5 7 1012.1 1011.5 8.8
28/07:00am 25.0 29.2 24.1 95 0.6 E 9 15 5 8 1011.9 - 8.8
28/06:30am 24.6 28.8 24.1 97 0.3 E 9 15 5 8 1011.1 - 8.8
28/06:00am 24.3 28.1 24.0 98 0.2 ESE 11 19 6 10 1010.5 - 8.8
28/05:30am 24.6 28.7 23.9 96 0.5 ESE 9 15 5 8 1011.1 - 8.0
28/05:00am 24.4 28.9 23.9 97 0.3 ESE 7 13 4 7 1010.7 - 8.0
28/04:30am 24.6 28.1 23.6 94 0.7 ESE 11 17 6 9 1010.4 1009.8 8.0
28/04:00am 25.2 28.4 23.1 88 1.4 ESE 11 17 6 9 1010.8 - 7.8
28/03:30am 25.3 28.6 23.2 88 1.4 ESE 11 22 6 12 1010.6 - 7.8
28/03:00am 25.6 28.2 23.3 87 1.6 E 15 22 8 12 1011.1 - 7.8
28/02:30am 25.8 28.5 23.5 87 1.6 E 15 26 8 14 1011.3 - 7.8
28/02:00am 26.0 28.6 23.3 85 1.8 E 15 22 8 12 1011.6 - 7.8
28/01:30am 26.1 28.4 23.4 85 1.8 E 17 24 9 13 1012.0 1011.4 7.8
28/01:00am 26.2 29.1 23.9 87 1.6 E 15 24 8 13 1012.6 - 7.8
28/12:30am 26.2 29.6 24.6 91 1.1 E 15 22 8 12 1012.7 - 7.8
28/12:00am 25.9 29.6 24.5 92 1.0 E 13 22 7 12 1012.8 - 7.8
 
Date/Time
CST
Temp
°C
App
Temp
°C
Dew
Point
Rel
Hum
%
Delta-T
°C
Wind Press
QNH
hPa
Press
MSL
hPa
Rain
since 9 am
mm
Dir
 
Spd
km/h
Gust
km/h
Spd
kts
Gust
kts
27/11:30pm 26.1 29.8 24.5 91 1.1 E 13 20 7 11 1012.8 - 7.8
27/11:25pm 26.2 29.8 24.4 90 1.2 E 13 19 7 10 1012.8 - 7.8
27/11:00pm 26.3 30.0 24.5 90 1.2 E 13 20 7 11 1013.0 - 7.8
27/10:30pm 26.3 30.1 24.7 91 1.1 E 13 20 7 11 1013.2 1012.6 7.8
27/10:11pm 26.4 29.9 24.8 91 1.1 E 15 26 8 14 1013.2 - 7.8
27/10:00pm 26.4 30.6 24.8 91 1.1 E 11 20 6 11 1013.0 - 7.8
27/09:30pm 26.3 29.7 24.7 91 1.1 E 15 26 8 14 1012.7 - 7.8
27/09:00pm 26.1 29.1 24.7 92 1.0 E 17 28 9 15 1012.2 - 7.8
27/08:30pm 25.5 29.1 24.3 93 0.8 E 13 20 7 11 1011.9 - 7.8
27/08:00pm 25.2 28.7 24.2 94 0.7 E 13 20 7 11 1011.4 - 7.8
27/07:30pm 24.5 28.0 23.6 95 0.6 E 11 19 6 10 1011.3 1010.7 7.8
27/07:00pm 24.2 27.4 23.0 93 0.8 ESE 11 20 6 11 1011.3 - 7.8
27/06:30pm 24.3 27.7 22.0 87 1.5 ESE 7 11 4 6 1011.3 - 7.8
27/06:00pm 24.2 27.3 22.8 92 0.9 E 11 17 6 9 1010.8 - 7.8
27/05:30pm 23.7 26.2 23.2 97 0.3 E 15 22 8 12 1010.3 - 7.8
27/05:00pm 23.4 25.9 23.2 99 0.1 ESE 15 26 8 14 1010.3 - 7.2
27/04:56pm 23.5 26.1 23.3 99 0.1 ESE 15 26 8 14 1010.3 - 7.0
27/04:36pm 23.7 25.5 23.5 99 0.1 E 20 30 11 16 1010.1 - 6.2
27/04:30pm 23.8 26.3 23.8 100 0.0 E 17 30 9 16 1010.2 1009.6 5.8
27/04:00pm 23.9 26.3 23.7 99 0.1 E 17 28 9 15 1010.3 - 4.0
27/03:53pm 24.0 26.9 23.8 99 0.1 E 15 24 8 13 1010.2 - 3.4
27/03:38pm 24.1 26.3 23.9 99 0.1 ESE 19 30 10 16 1010.2 - 3.0
27/03:30pm 24.3 27.0 24.1 99 0.1 ESE 17 28 9 15 1010.2 - 3.0
27/03:09pm 24.6 27.8 24.4 99 0.1 E 15 26 8 14 1010.4 - 2.0
27/03:00pm 24.6 27.8 24.4 99 0.1 E 15 20 8 11 1010.3 - 2.0
27/02:56pm 24.5 28.1 24.3 99 0.1 E 13 20 7 11 1010.2 - 2.0
27/02:51pm 24.5 28.4 24.3 99 0.1 E 11 19 6 10 1010.2 - 1.6
27/02:30pm 24.3 26.8 23.8 97 0.3 E 17 24 9 13 1010.6 - 1.4
27/02:26pm 24.5 27.5 24.0 97 0.3 E 15 26 8 14 1010.5 - 1.4
27/02:08pm 24.5 26.0 23.1 92 0.9 E 20 33 11 18 1010.8 - 0.6
27/02:00pm 25.1 25.8 22.2 84 1.9 ENE 22 33 12 18 1010.8 - 0.2
27/01:30pm 28.4 29.2 23.1 73 3.6 E 24 41 13 22 1011.1 1010.5 0.2
27/01:00pm 28.1 28.3 22.1 70 4.0 E 24 43 13 23 1011.4 - 0.2
27/12:30pm 27.5 28.6 23.1 77 3.0 E 22 35 12 19 1011.8 - 0.2
27/12:00pm 27.6 27.8 22.1 72 3.7 E 24 44 13 24 1012.0 - 0.2
27/11:47am 27.5 26.9 22.0 72 3.7 E 28 46 15 25 1012.3 - 0.2
27/11:30am 27.2 28.6 22.6 76 3.1 E 19 33 10 18 1012.3 - 0.0
27/11:00am 27.1 28.2 22.3 75 3.2 E 20 32 11 17 1012.3 - 0.0
27/10:30am 27.0 28.0 22.2 75 3.2 E 20 33 11 18 1012.2 1011.6 0.4
27/10:00am 26.7 28.1 22.5 78 2.8 ESE 19 32 10 17 1012.1 - 0.4
27/09:30am 26.3 28.6 22.8 81 2.4 E 15 28 8 15 1012.2 - 0.4
27/09:00am 26.2 27.4 22.5 80 2.5 ESE 20 32 11 17 1012.0 - 0.4
27/08:30am 26.3 27.2 21.9 77 2.9 ESE 20 30 11 16 1011.6 - 0.4
27/08:00am 26.4 28.8 22.3 78 2.8 SE 13 24 7 13 1011.4 - 0.4
27/07:30am 26.3 29.2 22.4 79 2.6 SE 11 22 6 12 1010.6 1010.0 0.4
27/07:00am 26.3 29.2 22.4 79 2.6 SE 11 24 6 13 1010.4 - 0.4
27/06:30am 26.4 28.9 22.5 79 2.6 SE 13 22 7 12 1010.5 - 0.4
27/06:00am 26.3 29.3 22.6 80 2.5 SSE 11 17 6 9 1010.7 - 0.4
27/05:30am 26.2 28.7 22.5 80 2.5 SE 13 20 7 11 1009.9 - 0.4
27/05:00am 26.4 28.2 22.5 79 2.6 SSE 17 28 9 15 1009.6 - 0.4
27/04:30am 26.4 29.4 22.7 80 2.5 SSE 11 17 6 9 1009.6 1009.0 0.4
27/04:00am 26.2 29.5 22.5 80 2.5 SE 9 15 5 8 1010.1 - 0.4
27/03:30am 26.5 29.5 22.6 79 2.6 SSE 11 20 6 11 1010.5 - 0.4
27/03:00am 26.7 30.2 22.8 79 2.6 SSE 9 15 5 8 1010.7 - 0.4
27/02:30am 26.6 30.1 22.9 80 2.5 S 9 13 5 7 1010.6 - 0.4
27/02:00am 26.3 30.1 22.8 81 2.4 SSE 7 9 4 5 1010.8 - 0.4
27/01:30am 26.6 30.0 22.7 79 2.6 SE 9 13 5 7 1011.1 1010.5 0.4
27/01:00am 26.7 30.3 23.0 80 2.5 SSE 9 15 5 8 1011.5 - 0.4
27/12:30am 27.0 30.4 23.3 80 2.5 SSE 11 19 6 10 1011.7 - 0.4
27/12:00am 26.2 30.5 24.2 89 1.4 S 9 11 5 6 1012.0 - 0.4
 
Date/Time
CST
Temp
°C
App
Temp
°C
Dew
Point
Rel
Hum
%
Delta-T
°C
Wind Press
QNH
hPa
Press
MSL
hPa
Rain
since 9 am
mm
Dir
 
Spd
km/h
Gust
km/h
Spd
kts
Gust
kts
26/11:30pm 26.1 29.9 24.0 88 1.4 S 11 15 6 8 1011.9 - 0.4
26/11:00pm 26.8 30.3 23.5 82 2.3 S 11 17 6 9 1012.2 - 0.4
26/10:30pm 26.8 30.8 23.7 83 2.1 SW 9 13 5 7 1012.0 1011.4 0.4
26/10:00pm 26.7 30.3 23.8 84 2.0 SW 11 13 6 7 1012.0 - 0.4
26/09:30pm 26.8 30.8 23.7 83 2.1 SW 9 11 5 6 1012.0 - 0.4
26/09:00pm 27.0 31.0 23.7 82 2.3 SSW 9 13 5 7 1012.0 - 0.4
26/08:30pm 27.0 30.8 23.5 81 2.4 SSW 9 13 5 7 1011.7 - 0.4
26/08:00pm 28.2 30.9 22.2 70 4.1 SSE 11 15 6 8 1011.3 - 0.4
26/07:30pm 28.2 31.3 22.2 70 4.1 SSE 9 17 5 9 1010.7 1010.1 0.4
26/07:00pm 28.4 30.2 21.9 68 4.4 SSE 15 24 8 13 1010.4 - 0.4
26/06:30pm 29.0 31.3 22.0 66 4.7 SSE 13 20 7 11 1010.0 - 0.4
26/06:00pm 29.1 30.3 22.1 66 4.7 SSE 19 30 10 16 1009.8 - 0.4
26/05:30pm 29.7 31.6 21.4 61 5.6 SSE 13 20 7 11 1009.6 - 0.4
26/05:00pm 29.5 31.4 21.4 61 5.4 SE 13 20 7 11 1009.6 - 0.4
26/04:30pm 30.2 32.1 21.3 59 6.0 SSE 13 20 7 11 1009.5 1008.9 0.4
26/04:00pm 30.4 32.5 20.9 57 6.3 SE 11 20 6 11 1009.4 - 0.4
26/03:30pm 30.8 31.3 20.1 53 7.1 SSE 17 24 9 13 1009.5 - 0.4
26/03:00pm 31.8 33.5 21.0 52 7.2 S 13 28 7 15 1009.3 - 0.4
26/02:30pm 31.8 32.9 21.3 53 7.1 S 17 26 9 14 1009.8 - 0.4
26/02:00pm 31.0 33.0 21.5 57 6.4 SSE 13 20 7 11 1010.3 - 0.4
26/01:30pm 29.9 32.0 21.0 59 5.9 SE 11 20 6 11 1011.0 1010.4 0.4
26/01:00pm 29.9 34.4 23.6 69 4.4 E 6 19 3 10 1011.5 - 0.4
26/12:30pm 27.0 29.7 22.8 78 2.9 ESE 13 20 7 11 1012.0 - 0.4
26/12:00pm 29.7 31.1 21.9 63 5.3 SSW 17 26 9 14 1012.0 - 0.0
26/11:30am 30.7 32.9 21.2 57 6.4 SE 11 20 6 11 1012.2 - 0.0
26/11:00am 30.9 33.8 21.7 58 6.2 SSE 9 13 5 7 1012.7 - 0.0
26/10:30am 30.2 34.1 23.6 67 4.6 SE 9 17 5 9 1012.7 1012.1 0.0
26/10:00am 29.1 33.9 24.4 76 3.3 SE 7 13 4 7 1012.7 - 0.0
26/09:30am 28.4 33.5 24.6 80 2.7 SSE 6 7 3 4 1012.6 - 0.0
26/09:00am 27.2 32.0 24.5 85 1.9 SE 7 11 4 6 1012.4 - 0.0
26/08:30am 26.6 31.5 24.3 87 1.6 ESE 6 7 3 4 1012.0 - 0.0
26/08:00am 25.9 30.4 23.9 89 1.4 SE 7 9 4 5 1011.6 - 0.0
26/07:30am 25.6 30.1 24.0 91 1.1 ESE 7 9 4 5 1011.4 1010.8 0.0
26/07:00am 25.9 30.4 23.9 89 1.4 E 7 11 4 6 1011.4 - 0.0
26/06:30am 26.5 30.6 24.5 89 1.4 ENE 11 19 6 10 1011.2 - 0.0
26/06:29am 26.6 30.7 24.6 89 1.4 E 11 19 6 10 1011.2 - 0.0
26/06:08am 26.7 31.5 25.1 91 1.1 E 9 13 5 7 1010.9 - 0.0
26/06:00am 26.6 31.0 25.0 91 1.1 E 11 13 6 7 1011.1 - 0.0
26/05:30am 27.5 32.5 24.5 84 2.1 SW 6 7 3 4 1010.5 - 0.0
26/05:00am 26.9 33.3 24.9 89 1.4 CALM 0 0 0 0 1010.3 - 0.0
26/04:30am 26.9 32.2 24.9 89 1.4 SSE 6 7 3 4 1010.4 1009.8 0.0
26/04:00am 26.9 32.4 24.7 88 1.5 S 4 6 2 3 1010.5 - 0.0
26/03:30am 27.0 32.1 25.0 89 1.4 E 7 9 4 5 1010.6 - 0.0
26/03:00am 27.3 32.8 24.7 86 1.8 SE 4 7 2 4 1010.5 - 0.0
26/02:30am 28.3 32.6 24.9 82 2.4 WSW 11 15 6 8 1010.3 - 0.0
26/02:00am 28.5 33.3 25.1 82 2.4 W 9 15 5 8 1010.5 - 0.0
26/01:30am 28.6 33.0 25.0 81 2.5 W 11 15 6 8 1010.8 1010.2 0.0
26/01:00am 28.8 33.0 24.8 79 2.8 WNW 11 15 6 8 1011.3 - 0.0
26/12:30am 28.8 33.2 24.4 77 3.1 WNW 9 15 5 8 1011.4 - 0.0
26/12:00am 28.7 32.6 23.6 74 3.5 NW 9 13 5 7 1011.5 - 0.0
 
Date/Time
CST
Temp
°C
App
Temp
°C
Dew
Point
Rel
Hum
%
Delta-T
°C
Wind Press
QNH
hPa
Press
MSL
hPa
Rain
since 9 am
mm
Dir
 
Spd
km/h
Gust
km/h
Spd
kts
Gust
kts
25/11:30pm 28.7 32.6 23.6 74 3.5 NW 9 13 5 7 1011.7 - 0.0
25/11:00pm 28.7 32.2 23.6 74 3.5 NNW 11 15 6 8 1011.7 - 0.0
25/10:30pm 28.7 33.5 24.5 78 2.9 NNW 7 11 4 6 1011.9 1011.3 0.0
25/10:00pm 28.8 33.1 23.7 74 3.5 NW 7 13 4 7 1011.6 - 0.0
25/09:30pm 29.1 32.3 23.1 70 4.1 NW 11 17 6 9 1011.2 - 0.0
25/09:00pm 28.9 32.2 22.6 69 4.3 NNW 9 11 5 6 1010.8 - 0.0
25/08:30pm 28.9 31.6 22.2 67 4.5 NNW 11 17 6 9 1010.5 - 0.0
25/08:00pm 28.9 31.9 21.9 66 4.7 NNW 9 13 5 7 1010.2 - 0.0
25/07:30pm 29.2 31.8 21.9 64 4.9 N 11 19 6 10 1010.0 1009.4 0.0
25/07:00pm 29.5 32.4 21.7 63 5.3 N 9 17 5 9 1009.6 - 0.0
25/06:30pm 29.8 31.7 22.0 63 5.3 N 15 22 8 12 1009.4 - 0.0
25/06:00pm 30.2 32.0 22.6 63 5.2 N 17 24 9 13 1008.9 - 0.0
25/05:30pm 31.3 33.0 22.3 58 6.1 N 17 26 9 14 1008.6 - 0.0
25/05:00pm 33.2 33.3 20.0 45 8.8 E 19 24 10 13 1008.2 - 0.0
25/04:30pm 34.2 35.4 19.1 41 10.0 ESE 11 17 6 9 1008.2 1007.6 0.0
25/04:00pm 34.7 33.9 17.0 35 11.3 S 17 26 9 14 1008.2 - 0.0
25/03:30pm 35.1 33.8 18.2 36 11.0 S 22 28 12 15 1008.3 - 0.0

Other Formats:

Comma delimited format used in spreadsheet applications
http://www.bom.gov.au/fwo/IDD60801/IDD60801.95101.axf

JavaScript Object Notation format (JSON) in row-major order
http://www.bom.gov.au/fwo/IDD60801/IDD60801.95101.json